sensor_id;sensor_type;location;lat;lon;timestamp;pressure;altitude;pressure_sealevel;temperature;humidity
69784;BME280;57054;51.978;4.498;2023-05-02T00:01:53;102113.25;;;10.82;90.50
69784;BME280;57054;51.978;4.498;2023-05-02T00:04:18;102118.47;;;10.82;90.01
69784;BME280;57054;51.978;4.498;2023-05-02T00:06:44;102118.53;;;10.81;90.09
69784;BME280;57054;51.978;4.498;2023-05-02T00:09:11;102124.59;;;10.83;90.24
69784;BME280;57054;51.978;4.498;2023-05-02T00:11:36;102121.16;;;10.81;90.17
69784;BME280;57054;51.978;4.498;2023-05-02T00:14:02;102122.88;;;10.82;89.84
69784;BME280;57054;51.978;4.498;2023-05-02T00:16:27;102126.41;;;10.81;90.16
69784;BME280;57054;51.978;4.498;2023-05-02T00:18:53;102122.97;;;10.77;90.66
69784;BME280;57054;51.978;4.498;2023-05-02T00:21:18;102122.09;;;10.76;91.09
69784;BME280;57054;51.978;4.498;2023-05-02T00:23:43;102119.50;;;10.75;90.94
69784;BME280;57054;51.978;4.498;2023-05-02T00:26:09;102127.38;;;10.75;90.98
69784;BME280;57054;51.978;4.498;2023-05-02T00:28:34;102121.28;;;10.74;91.07
69784;BME280;57054;51.978;4.498;2023-05-02T00:31:00;102129.16;;;10.73;91.53
69784;BME280;57054;51.978;4.498;2023-05-02T00:33:26;102126.59;;;10.71;91.91
69784;BME280;57054;51.978;4.498;2023-05-02T00:35:51;102128.34;;;10.71;92.18
69784;BME280;57054;51.978;4.498;2023-05-02T00:38:17;102124.00;;;10.70;92.49
69784;BME280;57054;51.978;4.498;2023-05-02T00:40:47;102124.00;;;10.70;92.58
69784;BME280;57054;51.978;4.498;2023-05-02T00:43:13;102124.84;;;10.72;92.60
69784;BME280;57054;51.978;4.498;2023-05-02T00:45:41;102127.47;;;10.70;92.71
69784;BME280;57054;51.978;4.498;2023-05-02T00:48:08;102129.25;;;10.70;92.63
69784;BME280;57054;51.978;4.498;2023-05-02T00:50:41;102121.41;;;10.68;92.84
69784;BME280;57054;51.978;4.498;2023-05-02T00:53:08;102120.59;;;10.65;93.32
69784;BME280;57054;51.978;4.498;2023-05-02T00:55:35;102131.09;;;10.65;93.14
69784;BME280;57054;51.978;4.498;2023-05-02T00:58:14;102125.91;;;10.62;93.09
69784;BME280;57054;51.978;4.498;2023-05-02T01:04:45;102143.47;;;10.56;93.19
69784;BME280;57054;51.978;4.498;2023-05-02T01:12:42;102140.94;;;10.52;93.00
69784;BME280;57054;51.978;4.498;2023-05-02T01:15:14;102153.97;;;10.55;93.06
69784;BME280;57054;51.978;4.498;2023-05-02T01:17:41;102155.72;;;10.54;93.54
69784;BME280;57054;51.978;4.498;2023-05-02T01:20:12;102158.44;;;10.51;94.15
69784;BME280;57054;51.978;4.498;2023-05-02T01:22:38;102153.28;;;10.45;93.26
69784;BME280;57054;51.978;4.498;2023-05-02T01:25:19;102161.31;;;10.37;92.52
69784;BME280;57054;51.978;4.498;2023-05-02T01:30:20;102158.69;;;10.37;91.98
69784;BME280;57054;51.978;4.498;2023-05-02T01:32:47;102162.19;;;10.35;92.31
69784;BME280;57054;51.978;4.498;2023-05-02T01:35:16;102164.81;;;10.35;91.60
69784;BME280;57054;51.978;4.498;2023-05-02T01:37:43;102168.38;;;10.32;91.72
69784;BME280;57054;51.978;4.498;2023-05-02T01:40:10;102165.78;;;10.29;91.41
69784;BME280;57054;51.978;4.498;2023-05-02T01:42:39;102166.66;;;10.30;91.48
69784;BME280;57054;51.978;4.498;2023-05-02T01:45:07;102179.75;;;10.30;91.26
69784;BME280;57054;51.978;4.498;2023-05-02T01:47:34;102182.34;;;10.31;91.38
69784;BME280;57054;51.978;4.498;2023-05-02T01:50:02;102184.94;;;10.33;91.49
69784;BME280;57054;51.978;4.498;2023-05-02T01:52:29;102190.19;;;10.33;91.41
69784;BME280;57054;51.978;4.498;2023-05-02T01:54:58;102191.09;;;10.32;91.38
69784;BME280;57054;51.978;4.498;2023-05-02T01:57:24;102196.31;;;10.32;91.02
69784;BME280;57054;51.978;4.498;2023-05-02T01:59:50;102203.31;;;10.30;91.58
69784;BME280;57054;51.978;4.498;2023-05-02T02:02:19;102203.28;;;10.31;90.73
69784;BME280;57054;51.978;4.498;2023-05-02T02:04:46;102202.50;;;10.26;90.41
69784;BME280;57054;51.978;4.498;2023-05-02T02:07:13;102198.16;;;10.24;90.56
69784;BME280;57054;51.978;4.498;2023-05-02T02:09:39;102205.19;;;10.22;90.52
69784;BME280;57054;51.978;4.498;2023-05-02T02:12:10;102216.59;;;10.19;90.47
69784;BME280;57054;51.978;4.498;2023-05-02T02:14:37;102214.88;;;10.15;89.71
69784;BME280;57054;51.978;4.498;2023-05-02T02:17:19;102216.66;;;10.13;90.11
69784;BME280;57054;51.978;4.498;2023-05-02T02:19:47;102227.16;;;10.13;89.94
69784;BME280;57054;51.978;4.498;2023-05-02T02:22:18;102223.72;;;10.09;89.20
69784;BME280;57054;51.978;4.498;2023-05-02T02:24:45;102235.06;;;10.10;89.29
69784;BME280;57054;51.978;4.498;2023-05-02T02:27:11;102242.03;;;10.09;88.93
69784;BME280;57054;51.978;4.498;2023-05-02T02:29:37;102242.09;;;10.08;88.83
69784;BME280;57054;51.978;4.498;2023-05-02T02:32:02;102235.06;;;10.10;88.57
69784;BME280;57054;51.978;4.498;2023-05-02T02:34:28;102240.34;;;10.07;88.59
69784;BME280;57054;51.978;4.498;2023-05-02T02:37:07;102243.00;;;10.04;88.39
69784;BME280;57054;51.978;4.498;2023-05-02T02:44:58;102241.28;;;10.03;88.38
69784;BME280;57054;51.978;4.498;2023-05-02T02:47:37;102241.38;;;9.96;87.65
69784;BME280;57054;51.978;4.498;2023-05-02T02:50:22;102243.13;;;9.96;87.13
69784;BME280;57054;51.978;4.498;2023-05-02T02:52:54;102244.97;;;9.89;86.31
69784;BME280;57054;51.978;4.498;2023-05-02T02:55:41;102245.91;;;9.87;86.23
69784;BME280;57054;51.978;4.498;2023-05-02T03:00:50;102261.66;;;9.82;85.55
69784;BME280;57054;51.978;4.498;2023-05-02T03:03:19;102263.44;;;9.80;85.82
69784;BME280;57054;51.978;4.498;2023-05-02T03:05:47;102256.47;;;9.80;85.77
69784;BME280;57054;51.978;4.498;2023-05-02T03:08:12;102263.41;;;9.82;85.35
69784;BME280;57054;51.978;4.498;2023-05-02T03:10:37;102273.03;;;9.79;84.95
69784;BME280;57054;51.978;4.498;2023-05-02T03:13:03;102275.66;;;9.79;85.09
69784;BME280;57054;51.978;4.498;2023-05-02T03:18:12;102271.38;;;9.74;83.34
69784;BME280;57054;51.978;4.498;2023-05-02T03:20:38;102283.63;;;9.72;83.38
69784;BME280;57054;51.978;4.498;2023-05-02T03:23:04;102279.25;;;9.72;83.40
69784;BME280;57054;51.978;4.498;2023-05-02T03:25:29;102291.47;;;9.72;83.63
69784;BME280;57054;51.978;4.498;2023-05-02T03:27:56;102287.09;;;9.71;83.51
69784;BME280;57054;51.978;4.498;2023-05-02T03:30:22;102290.56;;;9.71;83.42
69784;BME280;57054;51.978;4.498;2023-05-02T03:32:47;102292.34;;;9.71;83.44
69784;BME280;57054;51.978;4.498;2023-05-02T03:35:12;102288.84;;;9.72;83.91
69784;BME280;57054;51.978;4.498;2023-05-02T03:37:38;102308.06;;;9.69;83.27
69784;BME280;57054;51.978;4.498;2023-05-02T03:40:04;102306.31;;;9.70;83.33
69784;BME280;57054;51.978;4.498;2023-05-02T03:42:29;102306.34;;;9.68;83.47
69784;BME280;57054;51.978;4.498;2023-05-02T03:44:55;102299.38;;;9.67;83.42
69784;BME280;57054;51.978;4.498;2023-05-02T03:47:20;102309.81;;;9.67;83.88
69784;BME280;57054;51.978;4.498;2023-05-02T03:49:45;102317.75;;;9.64;83.59
69784;BME280;57054;51.978;4.498;2023-05-02T03:52:11;102320.38;;;9.63;83.56
69784;BME280;57054;51.978;4.498;2023-05-02T03:54:37;102321.22;;;9.65;84.16
69784;BME280;57054;51.978;4.498;2023-05-02T03:57:02;102323.84;;;9.63;83.45
69784;BME280;57054;51.978;4.498;2023-05-02T03:59:32;102322.97;;;9.63;83.36
69784;BME280;57054;51.978;4.498;2023-05-02T04:01:57;102332.63;;;9.59;82.18
69784;BME280;57054;51.978;4.498;2023-05-02T04:04:23;102330.91;;;9.55;81.41
69784;BME280;57054;51.978;4.498;2023-05-02T04:06:48;102329.22;;;9.52;81.85
69784;BME280;57054;51.978;4.498;2023-05-02T04:09:14;102342.31;;;9.49;81.19
69784;BME280;57054;51.978;4.498;2023-05-02T04:11:39;102340.63;;;9.47;81.30
69784;BME280;57054;51.978;4.498;2023-05-02T04:14:06;102338.91;;;9.43;81.26
69784;BME280;57054;51.978;4.498;2023-05-02T04:16:31;102336.31;;;9.41;81.48
69784;BME280;57054;51.978;4.498;2023-05-02T04:18:56;102347.66;;;9.38;80.93
69784;BME280;57054;51.978;4.498;2023-05-02T04:21:22;102344.22;;;9.35;81.29
69784;BME280;57054;51.978;4.498;2023-05-02T04:23:47;102358.22;;;9.31;81.05
69784;BME280;57054;51.978;4.498;2023-05-02T04:26:13;102361.69;;;9.31;81.50
69784;BME280;57054;51.978;4.498;2023-05-02T04:28:39;102359.06;;;9.33;81.96
69784;BME280;57054;51.978;4.498;2023-05-02T04:31:04;102362.53;;;9.35;82.40
69784;BME280;57054;51.978;4.498;2023-05-02T04:33:30;102374.72;;;9.36;82.35
69784;BME280;57054;51.978;4.498;2023-05-02T04:35:55;102373.84;;;9.37;81.88
69784;BME280;57054;51.978;4.498;2023-05-02T04:38:21;102377.34;;;9.36;81.45
69784;BME280;57054;51.978;4.498;2023-05-02T04:40:49;102375.59;;;9.35;81.64
69784;BME280;57054;51.978;4.498;2023-05-02T04:43:15;102379.09;;;9.35;81.80
69784;BME280;57054;51.978;4.498;2023-05-02T04:45:40;102389.56;;;9.32;81.28
69784;BME280;57054;51.978;4.498;2023-05-02T04:48:06;102381.75;;;9.29;80.96
69784;BME280;57054;51.978;4.498;2023-05-02T04:50:31;102385.25;;;9.30;80.70
69784;BME280;57054;51.978;4.498;2023-05-02T04:52:57;102389.59;;;9.29;81.33
69784;BME280;57054;51.978;4.498;2023-05-02T04:55:22;102393.97;;;9.27;80.95
69784;BME280;57054;51.978;4.498;2023-05-02T04:57:47;102394.88;;;9.26;81.27
69784;BME280;57054;51.978;4.498;2023-05-02T05:00:13;102398.34;;;9.27;81.21
69784;BME280;57054;51.978;4.498;2023-05-02T05:02:39;102401.81;;;9.27;81.04
69784;BME280;57054;51.978;4.498;2023-05-02T05:05:05;102398.34;;;9.27;81.39
69784;BME280;57054;51.978;4.498;2023-05-02T05:07:30;102399.19;;;9.29;81.32
69784;BME280;57054;51.978;4.498;2023-05-02T05:09:55;102411.41;;;9.28;81.44
69784;BME280;57054;51.978;4.498;2023-05-02T05:12:21;102410.53;;;9.28;81.32
69784;BME280;57054;51.978;4.498;2023-05-02T05:14:46;102413.19;;;9.26;81.24
69784;BME280;57054;51.978;4.498;2023-05-02T05:17:12;102412.34;;;9.24;80.50
69784;BME280;57054;51.978;4.498;2023-05-02T05:19:37;102416.69;;;9.23;80.35
69784;BME280;57054;51.978;4.498;2023-05-02T05:22:03;102418.44;;;9.25;80.49
69784;BME280;57054;51.978;4.498;2023-05-02T05:24:28;102426.28;;;9.23;79.86
69784;BME280;57054;51.978;4.498;2023-05-02T05:26:54;102424.56;;;9.20;79.45
69784;BME280;57054;51.978;4.498;2023-05-02T05:29:19;102430.66;;;9.21;79.93
69784;BME280;57054;51.978;4.498;2023-05-02T05:31:44;102432.44;;;9.19;80.04
69784;BME280;57054;51.978;4.498;2023-05-02T05:34:10;102432.44;;;9.16;80.30
69784;BME280;57054;51.978;4.498;2023-05-02T05:36:35;102439.44;;;9.14;80.03
69784;BME280;57054;51.978;4.498;2023-05-02T05:39:02;102442.91;;;9.13;79.97
69784;BME280;57054;51.978;4.498;2023-05-02T05:41:28;102454.28;;;9.09;79.81
69784;BME280;57054;51.978;4.498;2023-05-02T05:43:54;102456.91;;;9.07;79.85
69784;BME280;57054;51.978;4.498;2023-05-02T05:46:20;102469.13;;;9.08;80.10
69784;BME280;57054;51.978;4.498;2023-05-02T05:48:46;102471.72;;;9.08;79.10
69784;BME280;57054;51.978;4.498;2023-05-02T05:51:11;102476.97;;;9.07;77.44
69784;BME280;57054;51.978;4.498;2023-05-02T05:53:36;102476.09;;;9.05;77.41
69784;BME280;57054;51.978;4.498;2023-05-02T05:56:11;102484.81;;;9.02;77.45
69784;BME280;57054;51.978;4.498;2023-05-02T05:58:38;102484.81;;;9.02;77.41
69784;BME280;57054;51.978;4.498;2023-05-02T06:01:03;102486.59;;;9.00;76.85
69784;BME280;57054;51.978;4.498;2023-05-02T06:03:29;102493.56;;;8.98;77.13
69784;BME280;57054;51.978;4.498;2023-05-02T06:05:54;102497.03;;;8.98;77.16
69784;BME280;57054;51.978;4.498;2023-05-02T06:08:20;102503.16;;;9.00;77.22
69784;BME280;57054;51.978;4.498;2023-05-02T06:10:45;102506.63;;;9.02;78.08
69784;BME280;57054;51.978;4.498;2023-05-02T06:13:11;102504.84;;;9.05;77.68
69784;BME280;57054;51.978;4.498;2023-05-02T06:15:36;102504.84;;;9.05;77.67
69784;BME280;57054;51.978;4.498;2023-05-02T06:18:02;102505.72;;;9.07;77.99
69784;BME280;57054;51.978;4.498;2023-05-02T06:20:27;102512.66;;;9.08;77.59
69784;BME280;57054;51.978;4.498;2023-05-02T06:22:52;102517.88;;;9.08;76.69
69784;BME280;57054;51.978;4.498;2023-05-02T06:25:18;102513.53;;;9.08;76.59
69784;BME280;57054;51.978;4.498;2023-05-02T06:27:43;102524.84;;;9.09;77.23
69784;BME280;57054;51.978;4.498;2023-05-02T06:30:09;102523.94;;;9.11;77.08
69784;BME280;57054;51.978;4.498;2023-05-02T06:32:34;102528.31;;;9.12;77.50
69784;BME280;57054;51.978;4.498;2023-05-02T06:35:00;102532.63;;;9.15;77.52
69784;BME280;57054;51.978;4.498;2023-05-02T06:37:25;102537.88;;;9.15;76.91
69784;BME280;57054;51.978;4.498;2023-05-02T06:39:51;102544.84;;;9.13;76.21
69784;BME280;57054;51.978;4.498;2023-05-02T06:42:16;102543.13;;;9.12;75.30
69784;BME280;57054;51.978;4.498;2023-05-02T06:44:41;102549.22;;;9.09;74.98
69784;BME280;57054;51.978;4.498;2023-05-02T06:47:07;102558.84;;;9.07;75.12
69784;BME280;57054;51.978;4.498;2023-05-02T06:49:32;102560.59;;;9.05;74.70
69784;BME280;57054;51.978;4.498;2023-05-02T06:51:58;102561.47;;;9.06;75.12
69784;BME280;57054;51.978;4.498;2023-05-02T06:54:23;102564.06;;;9.06;74.43
69784;BME280;57054;51.978;4.498;2023-05-02T06:56:49;102573.66;;;9.03;74.21
69784;BME280;57054;51.978;4.498;2023-05-02T06:59:14;102571.94;;;9.04;74.97
69784;BME280;57054;51.978;4.498;2023-05-02T07:01:42;102570.19;;;9.06;75.70
69784;BME280;57054;51.978;4.498;2023-05-02T07:04:07;102573.66;;;9.05;74.54
69784;BME280;57054;51.978;4.498;2023-05-02T07:06:33;102571.91;;;9.06;74.29
69784;BME280;57054;51.978;4.498;2023-05-02T07:08:58;102578.03;;;9.05;73.56
69784;BME280;57054;51.978;4.498;2023-05-02T07:11:24;102578.00;;;9.08;73.30
69784;BME280;57054;51.978;4.498;2023-05-02T07:13:50;102578.88;;;9.10;73.55
69784;BME280;57054;51.978;4.498;2023-05-02T07:16:15;102575.38;;;9.12;73.16
69784;BME280;57054;51.978;4.498;2023-05-02T07:18:41;102577.91;;;9.18;72.93
69784;BME280;57054;51.978;4.498;2023-05-02T07:21:07;102579.63;;;9.26;72.25
69784;BME280;57054;51.978;4.498;2023-05-02T07:23:33;102579.59;;;9.29;71.96
69784;BME280;57054;51.978;4.498;2023-05-02T07:25:58;102575.22;;;9.29;71.43
69784;BME280;57054;51.978;4.498;2023-05-02T07:28:24;102585.66;;;9.34;71.74
69784;BME280;57054;51.978;4.498;2023-05-02T07:30:50;102586.53;;;9.36;71.59
69784;BME280;57054;51.978;4.498;2023-05-02T07:33:15;102598.72;;;9.37;71.93
69784;BME280;57054;51.978;4.498;2023-05-02T07:35:41;102601.34;;;9.34;72.04
69784;BME280;57054;51.978;4.498;2023-05-02T07:38:06;102602.22;;;9.36;72.57
69784;BME280;57054;51.978;4.498;2023-05-02T07:40:32;102611.81;;;9.34;72.02
69784;BME280;57054;51.978;4.498;2023-05-02T07:42:59;102610.97;;;9.32;72.63
69784;BME280;57054;51.978;4.498;2023-05-02T07:45:25;102612.72;;;9.30;72.76
69784;BME280;57054;51.978;4.498;2023-05-02T07:47:50;102618.81;;;9.29;72.85
69784;BME280;57054;51.978;4.498;2023-05-02T07:50:16;102620.59;;;9.25;71.81
69784;BME280;57054;51.978;4.498;2023-05-02T07:52:41;102618.03;;;9.19;70.30
69784;BME280;57054;51.978;4.498;2023-05-02T07:55:07;102621.50;;;9.15;70.72
69784;BME280;57054;51.978;4.498;2023-05-02T07:57:32;102625.03;;;9.14;71.00
69784;BME280;57054;51.978;4.498;2023-05-02T07:59:58;102629.34;;;9.15;71.05
69784;BME280;57054;51.978;4.498;2023-05-02T08:02:23;102635.44;;;9.20;70.76
69784;BME280;57054;51.978;4.498;2023-05-02T08:04:50;102632.81;;;9.20;69.51
69784;BME280;57054;51.978;4.498;2023-05-02T08:07:15;102635.44;;;9.18;68.52
69784;BME280;57054;51.978;4.498;2023-05-02T08:09:41;102634.56;;;9.15;68.22
69784;BME280;57054;51.978;4.498;2023-05-02T08:12:06;102637.19;;;9.16;68.49
69784;BME280;57054;51.978;4.498;2023-05-02T08:14:32;102645.03;;;9.16;68.60
69784;BME280;57054;51.978;4.498;2023-05-02T08:16:58;102643.31;;;9.15;68.54
69784;BME280;57054;51.978;4.498;2023-05-02T08:19:23;102637.19;;;9.21;68.82
69784;BME280;57054;51.978;4.498;2023-05-02T08:21:49;102644.13;;;9.25;68.43
69784;BME280;57054;51.978;4.498;2023-05-02T08:24:14;102644.09;;;9.28;68.02
69784;BME280;57054;51.978;4.498;2023-05-02T08:26:40;102644.09;;;9.27;67.10
69784;BME280;57054;51.978;4.498;2023-05-02T08:29:05;102651.09;;;9.25;66.47
69784;BME280;57054;51.978;4.498;2023-05-02T08:31:31;102652.81;;;9.26;66.31
69784;BME280;57054;51.978;4.498;2023-05-02T08:33:56;102653.72;;;9.25;66.01
69784;BME280;57054;51.978;4.498;2023-05-02T08:36:21;102654.56;;;9.28;66.15
69784;BME280;57054;51.978;4.498;2023-05-02T08:38:47;102667.59;;;9.31;65.37
69784;BME280;57054;51.978;4.498;2023-05-02T08:41:15;102674.56;;;9.37;64.03
69784;BME280;57054;51.978;4.498;2023-05-02T08:43:44;102674.50;;;9.45;64.36
69784;BME280;57054;51.978;4.498;2023-05-02T08:46:11;102677.97;;;9.45;61.19
69784;BME280;57054;51.978;4.498;2023-05-02T08:48:40;102675.34;;;9.48;61.31
69784;BME280;57054;51.978;4.498;2023-05-02T08:51:12;102677.97;;;9.48;60.87
69784;BME280;57054;51.978;4.498;2023-05-02T08:53:38;102677.06;;;9.48;59.85
69784;BME280;57054;51.978;4.498;2023-05-02T08:56:08;102677.94;;;9.51;60.42
69784;BME280;57054;51.978;4.498;2023-05-02T08:58:36;102678.75;;;9.56;60.95
69784;BME280;57054;51.978;4.498;2023-05-02T09:01:03;102683.13;;;9.60;59.34
69784;BME280;57054;51.978;4.498;2023-05-02T09:03:34;102682.22;;;9.63;59.35
69784;BME280;57054;51.978;4.498;2023-05-02T09:08:27;102688.28;;;9.70;59.13
69784;BME280;57054;51.978;4.498;2023-05-02T09:10:53;102684.75;;;9.75;59.37
69784;BME280;57054;51.978;4.498;2023-05-02T09:13:30;102701.28;;;9.80;59.36
69784;BME280;57054;51.978;4.498;2023-05-02T09:16:02;102701.22;;;9.87;59.47
69784;BME280;57054;51.978;4.498;2023-05-02T09:18:30;102697.69;;;9.94;59.20
69784;BME280;57054;51.978;4.498;2023-05-02T09:21:00;102702.84;;;9.98;59.44
69784;BME280;57054;51.978;4.498;2023-05-02T09:23:39;102696.72;;;10.04;59.49
69784;BME280;57054;51.978;4.498;2023-05-02T09:28:42;102688.78;;;10.13;58.99
69784;BME280;57054;51.978;4.498;2023-05-02T09:31:09;102703.56;;;10.19;57.87
69784;BME280;57054;51.978;4.498;2023-05-02T09:33:36;102700.97;;;10.17;56.95
69784;BME280;57054;51.978;4.498;2023-05-02T09:36:01;102707.91;;;10.22;57.59
69784;BME280;57054;51.978;4.498;2023-05-02T09:38:28;102700.03;;;10.25;57.50
69784;BME280;57054;51.978;4.498;2023-05-02T09:40:53;102700.84;;;10.30;57.78
69784;BME280;57054;51.978;4.498;2023-05-02T09:43:22;102719.16;;;10.34;57.83
69784;BME280;57054;51.978;4.498;2023-05-02T09:46:02;102712.13;;;10.41;58.72
69784;BME280;57054;51.978;4.498;2023-05-02T09:48:29;102714.66;;;10.47;58.71
69784;BME280;57054;51.978;4.498;2023-05-02T09:50:56;102718.97;;;10.53;58.50
69784;BME280;57054;51.978;4.498;2023-05-02T09:53:23;102720.72;;;10.54;57.80
69784;BME280;57054;51.978;4.498;2023-05-02T09:56:02;102717.25;;;10.53;58.87
69784;BME280;57054;51.978;4.498;2023-05-02T09:58:30;102733.81;;;10.52;58.88
69784;BME280;57054;51.978;4.498;2023-05-02T10:00:56;102725.16;;;10.47;58.20
69784;BME280;57054;51.978;4.498;2023-05-02T10:03:23;102726.94;;;10.42;57.62
69784;BME280;57054;51.978;4.498;2023-05-02T10:05:50;102730.47;;;10.38;57.33
69784;BME280;57054;51.978;4.498;2023-05-02T10:08:18;102733.94;;;10.42;58.75
69784;BME280;57054;51.978;4.498;2023-05-02T10:10:55;102723.44;;;10.46;57.94
69784;BME280;57054;51.978;4.498;2023-05-02T10:13:22;102727.72;;;10.53;58.11
69784;BME280;57054;51.978;4.498;2023-05-02T10:16:10;102724.09;;;10.64;57.71
69784;BME280;57054;51.978;4.498;2023-05-02T10:19:02;102730.13;;;10.72;56.85
69784;BME280;57054;51.978;4.498;2023-05-02T10:21:27;102723.03;;;10.82;57.10
69784;BME280;57054;51.978;4.498;2023-05-02T10:23:54;102736.94;;;10.87;55.73
69784;BME280;57054;51.978;4.498;2023-05-02T10:26:21;102729.94;;;10.89;56.05
69784;BME280;57054;51.978;4.498;2023-05-02T10:28:48;102725.53;;;10.92;56.16
69784;BME280;57054;51.978;4.498;2023-05-02T10:31:14;102721.13;;;10.93;55.66
69784;BME280;57054;51.978;4.498;2023-05-02T10:33:40;102727.31;;;10.90;55.81
69784;BME280;57054;51.978;4.498;2023-05-02T10:36:07;102735.25;;;10.83;55.87
69784;BME280;57054;51.978;4.498;2023-05-02T10:38:34;102726.50;;;10.82;55.70
69784;BME280;57054;51.978;4.498;2023-05-02T10:41:21;102734.34;;;10.87;56.08
69784;BME280;57054;51.978;4.498;2023-05-02T10:43:48;102730.78;;;10.89;55.50
69784;BME280;57054;51.978;4.498;2023-05-02T10:46:34;102732.56;;;10.89;55.16
69784;BME280;57054;51.978;4.498;2023-05-02T10:49:01;102729.13;;;10.82;54.00
69784;BME280;57054;51.978;4.498;2023-05-02T10:51:29;102732.63;;;10.83;55.47
69784;BME280;57054;51.978;4.498;2023-05-02T10:59:29;102730.72;;;10.97;55.50
69784;BME280;57054;51.978;4.498;2023-05-02T11:01:55;102729.81;;;11.00;54.34
69784;BME280;57054;51.978;4.498;2023-05-02T11:04:22;102741.09;;;11.06;56.43
69784;BME280;57054;51.978;4.498;2023-05-02T11:11:54;102745.44;;;11.06;55.74
69784;BME280;57054;51.978;4.498;2023-05-02T11:22:31;102743.38;;;11.31;57.64
69784;BME280;57054;51.978;4.498;2023-05-02T11:24:56;102743.28;;;11.39;57.05
69784;BME280;57054;51.978;4.498;2023-05-02T11:29:55;102749.44;;;11.38;56.33
69784;BME280;57054;51.978;4.498;2023-05-02T11:32:20;102751.25;;;11.31;55.72
69784;BME280;57054;51.978;4.498;2023-05-02T11:34:47;102748.63;;;11.31;56.29
69784;BME280;57054;51.978;4.498;2023-05-02T11:37:17;102754.78;;;11.30;56.42
69784;BME280;57054;51.978;4.498;2023-05-02T11:39:43;102757.38;;;11.31;56.58
69784;BME280;57054;51.978;4.498;2023-05-02T11:42:09;102759.13;;;11.29;55.18
69784;BME280;57054;51.978;4.498;2023-05-02T11:44:54;102764.34;;;11.32;56.62
69784;BME280;57054;51.978;4.498;2023-05-02T11:47:20;102774.81;;;11.37;55.31
69784;BME280;57054;51.978;4.498;2023-05-02T11:49:46;102776.47;;;11.44;55.88
69784;BME280;57054;51.978;4.498;2023-05-02T11:52:11;102780.69;;;11.53;56.64
69784;BME280;57054;51.978;4.498;2023-05-02T11:54:37;102775.28;;;11.64;55.51
69784;BME280;57054;51.978;4.498;2023-05-02T11:57:02;102783.00;;;11.76;55.91
69784;BME280;57054;51.978;4.498;2023-05-02T11:59:28;102775.94;;;11.81;54.75
69784;BME280;57054;51.978;4.498;2023-05-02T12:01:53;102776.69;;;11.91;55.66
69784;BME280;57054;51.978;4.498;2023-05-02T12:04:19;102781.06;;;11.89;54.03
69784;BME280;57054;51.978;4.498;2023-05-02T12:06:55;102786.31;;;11.89;54.19
69784;BME280;57054;51.978;4.498;2023-05-02T12:09:20;102782.84;;;11.90;54.21
69784;BME280;57054;51.978;4.498;2023-05-02T12:11:51;102790.72;;;11.90;54.58
69784;BME280;57054;51.978;4.498;2023-05-02T12:14:17;102780.22;;;11.90;53.92
69784;BME280;57054;51.978;4.498;2023-05-02T12:16:50;102796.88;;;11.84;53.07
69784;BME280;57054;51.978;4.498;2023-05-02T12:19:15;102792.56;;;11.79;53.51
69784;BME280;57054;51.978;4.498;2023-05-02T12:21:42;102795.25;;;11.76;54.14
69784;BME280;57054;51.978;4.498;2023-05-02T12:24:07;102787.38;;;11.77;55.39
69784;BME280;57054;51.978;4.498;2023-05-02T12:26:34;102791.69;;;11.80;55.31
69784;BME280;57054;51.978;4.498;2023-05-02T12:29:00;102796.06;;;11.81;53.46
69784;BME280;57054;51.978;4.498;2023-05-02T12:31:27;102803.03;;;11.82;54.64
69784;BME280;57054;51.978;4.498;2023-05-02T12:33:55;102809.94;;;11.87;54.29
69784;BME280;57054;51.978;4.498;2023-05-02T12:36:22;102803.81;;;11.88;53.95
69784;BME280;57054;51.978;4.498;2023-05-02T12:38:51;102802.97;;;11.88;53.42
69784;BME280;57054;51.978;4.498;2023-05-02T12:41:18;102808.25;;;11.85;54.72
69784;BME280;57054;51.978;4.498;2023-05-02T12:43:48;102797.72;;;11.86;55.50
69784;BME280;57054;51.978;4.498;2023-05-02T12:46:14;102797.66;;;11.89;54.43
69784;BME280;57054;51.978;4.498;2023-05-02T12:48:40;102809.06;;;11.92;53.33
69784;BME280;57054;51.978;4.498;2023-05-02T12:51:05;102817.81;;;11.89;52.68
69784;BME280;57054;51.978;4.498;2023-05-02T12:53:41;102812.59;;;11.86;52.05
69784;BME280;57054;51.978;4.498;2023-05-02T12:56:08;102827.50;;;11.84;52.69
69784;BME280;57054;51.978;4.498;2023-05-02T12:58:41;102817.91;;;11.83;53.36
69784;BME280;57054;51.978;4.498;2023-05-02T13:01:07;102826.66;;;11.83;53.16
69784;BME280;57054;51.978;4.498;2023-05-02T13:03:33;102830.19;;;11.81;52.46
69784;BME280;57054;51.978;4.498;2023-05-02T13:05:58;102831.06;;;11.80;52.92
69784;BME280;57054;51.978;4.498;2023-05-02T13:08:24;102833.69;;;11.80;53.62
69784;BME280;57054;51.978;4.498;2023-05-02T13:10:49;102838.91;;;11.83;52.39
69784;BME280;57054;51.978;4.498;2023-05-02T13:13:14;102837.16;;;11.83;52.84
69784;BME280;57054;51.978;4.498;2023-05-02T13:15:40;102840.75;;;11.76;51.07
69784;BME280;57054;51.978;4.498;2023-05-02T13:18:06;102837.25;;;11.76;51.93
69784;BME280;57054;51.978;4.498;2023-05-02T13:20:31;102832.00;;;11.76;51.87
69784;BME280;57054;51.978;4.498;2023-05-02T13:22:56;102841.59;;;11.77;53.26
69784;BME280;57054;51.978;4.498;2023-05-02T13:25:22;102839.91;;;11.74;51.32
69784;BME280;57054;51.978;4.498;2023-05-02T13:27:47;102841.66;;;11.74;52.25
69784;BME280;57054;51.978;4.498;2023-05-02T13:30:12;102839.06;;;11.72;52.78
69784;BME280;57054;51.978;4.498;2023-05-02T13:32:38;102842.53;;;11.74;52.90
69784;BME280;57054;51.978;4.498;2023-05-02T13:35:04;102845.16;;;11.74;51.81
69784;BME280;57054;51.978;4.498;2023-05-02T13:37:30;102850.41;;;11.74;52.35
69784;BME280;57054;51.978;4.498;2023-05-02T13:39:55;102846.84;;;11.77;52.51
69784;BME280;57054;51.978;4.498;2023-05-02T13:42:21;102854.72;;;11.78;52.10
69784;BME280;57054;51.978;4.498;2023-05-02T13:44:46;102853.84;;;11.78;51.69